createdAt,value
2022-11-29T00:01:19.259Z,101066.63
2022-11-29T00:03:22.605Z,101067.63
2022-11-29T00:05:24.329Z,101072.03
2022-11-29T00:07:25.993Z,101070.28
2022-11-29T00:09:27.727Z,101070.28
2022-11-29T00:11:30.259Z,101075.44
2022-11-29T00:13:32.312Z,101077.09
2022-11-29T00:15:36.049Z,101077.09
2022-11-29T00:17:37.876Z,101057.97
2022-11-29T00:19:41.150Z,101078.59
2022-11-29T00:21:43.140Z,101081.91
2022-11-29T00:23:44.764Z,101074.91
2022-11-29T00:25:46.715Z,101085.44
2022-11-29T00:27:48.983Z,101090.44
2022-11-29T00:29:50.755Z,101083.31
2022-11-29T00:31:52.663Z,101085.94
2022-11-29T00:33:54.411Z,101082.22
2022-11-29T00:36:00.349Z,101090.09
2022-11-29T00:38:02.208Z,101088.44
2022-11-29T00:40:04.574Z,101081.34
2022-11-29T00:42:06.762Z,101075.22
2022-11-29T00:44:09.369Z,101072.69
2022-11-29T00:46:11.475Z,101075.34
2022-11-29T00:48:13.167Z,101086.78
2022-11-29T00:50:14.551Z,101076.22
2022-11-29T00:52:20.562Z,101081.50
2022-11-29T00:54:22.477Z,101078.91
2022-11-29T00:56:24.605Z,101076.19
2022-11-29T00:58:26.437Z,101077.97
2022-11-29T01:00:28.257Z,101078.78
2022-11-29T01:02:30.022Z,101079.91
2022-11-29T01:04:31.760Z,101073.03
2022-11-29T01:06:33.152Z,101085.31
2022-11-29T01:08:36.437Z,101085.31
2022-11-29T01:10:38.283Z,101079.09
2022-11-29T01:12:40.581Z,101073.09
2022-11-29T01:14:42.660Z,101083.31
2022-11-29T01:16:44.593Z,101074.63
2022-11-29T01:18:46.027Z,101081.44
2022-11-29T01:20:56.073Z,101066.56
2022-11-29T01:22:58.313Z,101078.84
2022-11-29T01:25:01.282Z,101083.22
2022-11-29T01:27:02.859Z,101076.09
2022-11-29T01:29:04.996Z,101075.28
2022-11-29T01:31:08.136Z,101084.09
2022-11-29T01:33:09.718Z,101080.63
2022-11-29T01:35:11.284Z,101086.69
2022-11-29T01:37:12.825Z,101084.03
2022-11-29T01:39:14.488Z,101088.66
2022-11-29T01:41:19.710Z,101085.19
2022-11-29T01:43:21.426Z,101086.63
2022-11-29T01:45:23.397Z,101076.22
2022-11-29T01:47:25.081Z,101083.16
2022-11-29T01:49:27.852Z,101076.38
2022-11-29T01:51:30.865Z,101076.91
2022-11-29T01:53:33.198Z,101072.56
2022-11-29T01:55:39.003Z,101074.94
2022-11-29T01:57:43.528Z,101074.03
2022-11-29T01:59:48.251Z,101075.75
2022-11-29T02:01:49.827Z,101077.59
2022-11-29T02:03:51.419Z,101067.19
2022-11-29T02:05:54.787Z,101071.59
2022-11-29T02:07:58.872Z,101069.91
2022-11-29T02:10:02.157Z,101078.72
2022-11-29T02:12:16.477Z,101070.81
2022-11-29T02:14:47.384Z,101068.16
2022-11-29T02:16:58.115Z,101071.81
2022-11-29T02:19:11.553Z,101061.38
2022-11-29T02:21:27.280Z,101078.69
2022-11-29T02:24:07.168Z,101080.47
2022-11-29T02:26:18.174Z,101080.41
2022-11-29T02:28:49.641Z,101059.91
2022-11-29T02:31:18.757Z,101080.56
2022-11-29T02:33:49.667Z,101079.53
2022-11-29T02:36:15.408Z,101067.47
2022-11-29T02:38:41.413Z,101083.94
2022-11-29T02:41:00.563Z,101087.34
2022-11-29T02:43:15.092Z,101093.50
2022-11-29T02:45:41.716Z,101089.34
2022-11-29T02:47:55.118Z,101082.22
2022-11-29T02:50:17.868Z,101071.78
2022-11-29T02:52:25.109Z,101092.78
2022-11-29T02:54:33.515Z,101097.97
2022-11-29T02:56:43.557Z,101108.81
2022-11-29T02:58:51.145Z,101100.94
2022-11-29T03:01:08.500Z,101102.59
2022-11-29T03:03:18.165Z,101085.03
2022-11-29T03:05:29.596Z,101098.97
2022-11-29T03:07:39.358Z,101102.53
2022-11-29T03:09:54.644Z,101098.78
2022-11-29T03:12:07.030Z,101098.78
2022-11-29T03:14:17.232Z,101113.88
2022-11-29T03:16:41.306Z,101104.28
2022-11-29T03:18:56.204Z,101113.19
2022-11-29T03:21:09.807Z,101109.59
2022-11-29T03:23:22.139Z,101113.91
2022-11-29T03:25:29.048Z,101113.88
2022-11-29T03:27:38.340Z,101116.53
2022-11-29T03:29:46.431Z,101110.44
2022-11-29T03:31:51.292Z,101120.00
2022-11-29T03:33:58.509Z,101116.59
2022-11-29T03:36:09.203Z,101107.22
2022-11-29T03:38:20.810Z,101124.94
2022-11-29T03:40:28.846Z,101120.53
2022-11-29T03:42:34.358Z,101124.28
2022-11-29T03:44:40.250Z,101121.59
2022-11-29T03:46:50.281Z,101133.97
2022-11-29T03:48:56.039Z,101126.88
2022-11-29T03:51:03.643Z,101126.72
2022-11-29T03:53:14.491Z,101125.84
2022-11-29T03:55:33.767Z,101123.94
2022-11-29T03:57:48.413Z,101129.22
2022-11-29T04:00:01.402Z,101124.09
2022-11-29T04:02:20.832Z,101131.09
2022-11-29T04:05:13.417Z,101127.50
2022-11-29T04:07:22.886Z,101127.56
2022-11-29T04:09:42.224Z,101127.50
2022-11-29T04:12:02.869Z,101126.63
2022-11-29T04:14:30.264Z,101127.63
2022-11-29T04:17:05.483Z,101118.94
2022-11-29T04:19:50.998Z,101127.03
2022-11-29T04:22:24.649Z,101135.69
2022-11-29T04:25:06.140Z,101138.28
2022-11-29T04:27:40.712Z,101130.28
2022-11-29T04:30:04.157Z,101132.75
2022-11-29T04:32:34.611Z,101131.03
2022-11-29T04:34:52.495Z,101125.75
2022-11-29T04:37:23.642Z,101137.00
2022-11-29T04:39:50.591Z,101132.50
2022-11-29T04:42:25.663Z,101127.09
2022-11-29T04:44:45.764Z,101127.22
2022-11-29T04:47:00.144Z,101131.66
2022-11-29T04:49:16.988Z,101133.50
2022-11-29T04:51:33.820Z,101130.97
2022-11-29T04:53:49.550Z,101139.66
2022-11-29T04:56:01.503Z,101141.38
2022-11-29T04:58:13.112Z,101138.03
2022-11-29T05:00:19.152Z,101144.97
2022-11-29T05:02:33.230Z,101144.84
2022-11-29T05:04:44.804Z,101146.50
2022-11-29T05:06:58.411Z,101147.34
2022-11-29T05:09:10.632Z,101149.16
2022-11-29T05:11:23.393Z,101147.22
2022-11-29T05:13:39.084Z,101136.59
2022-11-29T05:16:02.661Z,101148.97
2022-11-29T05:18:13.014Z,101140.84
2022-11-29T05:20:21.494Z,101154.97
2022-11-29T05:22:31.526Z,101152.28
2022-11-29T05:24:51.295Z,101154.78
2022-11-29T05:27:01.712Z,101161.78
2022-11-29T05:29:10.143Z,101160.88
2022-11-29T05:31:24.872Z,101157.47
2022-11-29T05:33:47.468Z,101171.47
2022-11-29T05:35:52.621Z,101169.56
2022-11-29T05:37:57.755Z,101174.97
2022-11-29T05:40:19.892Z,101175.84
2022-11-29T05:42:41.347Z,101178.31
2022-11-29T05:44:48.592Z,101177.41
2022-11-29T05:46:57.048Z,101177.50
2022-11-29T05:49:08.503Z,101168.09
2022-11-29T05:51:19.842Z,101183.88
2022-11-29T05:53:24.741Z,101183.00
2022-11-29T05:55:39.797Z,101185.63
2022-11-29T05:57:47.890Z,101184.72
2022-11-29T05:59:51.159Z,101195.06
2022-11-29T06:02:01.557Z,101182.72
2022-11-29T06:04:13.322Z,101182.16
2022-11-29T06:06:22.593Z,101188.25
2022-11-29T06:08:34.158Z,101198.88
2022-11-29T06:10:38.643Z,101205.13
2022-11-29T06:12:42.510Z,101193.47
2022-11-29T06:15:05.577Z,101196.88
2022-11-29T06:17:35.737Z,101215.56
2022-11-29T06:19:58.418Z,101211.16
2022-11-29T06:22:11.681Z,101210.13
2022-11-29T06:24:30.482Z,101217.13
2022-11-29T06:26:46.174Z,101221.38
2022-11-29T06:29:00.657Z,101223.13
2022-11-29T06:31:15.998Z,101225.63
2022-11-29T06:33:22.485Z,101224.84
2022-11-29T06:35:41.030Z,101230.00
2022-11-29T06:37:48.859Z,101222.97
2022-11-29T06:39:50.856Z,101231.94
2022-11-29T06:41:52.547Z,101226.66
2022-11-29T06:43:54.169Z,101232.94
2022-11-29T06:46:00.583Z,101230.31
2022-11-29T06:48:06.631Z,101214.56
2022-11-29T06:50:26.906Z,101239.66
2022-11-29T06:52:37.639Z,101244.16
2022-11-29T06:54:54.516Z,101248.63
2022-11-29T06:57:05.554Z,101247.88
2022-11-29T06:59:29.215Z,101253.94
2022-11-29T07:01:39.305Z,101248.63
2022-11-29T07:03:57.516Z,101248.59
2022-11-29T07:06:12.425Z,101260.97
2022-11-29T07:08:16.327Z,101259.91
2022-11-29T07:10:19.700Z,101258.94
2022-11-29T07:12:22.030Z,101250.38
2022-11-29T07:14:24.165Z,101265.44
2022-11-29T07:16:30.820Z,101265.34
2022-11-29T07:18:40.224Z,101265.53
2022-11-29T07:20:53.163Z,101261.78
2022-11-29T07:23:04.102Z,101260.88
2022-11-29T07:25:18.211Z,101259.72
2022-11-29T07:27:23.615Z,101262.25
2022-11-29T07:29:39.658Z,101260.34
2022-11-29T07:31:51.981Z,101264.84
2022-11-29T07:34:04.798Z,101262.28
2022-11-29T07:36:14.346Z,101270.06
2022-11-29T07:38:26.708Z,101274.41
2022-11-29T07:40:37.740Z,101274.34
2022-11-29T07:42:50.381Z,101271.47
2022-11-29T07:45:01.023Z,101274.84
2022-11-29T07:47:02.826Z,101273.44
2022-11-29T07:49:05.576Z,101280.56
2022-11-29T07:51:08.973Z,101283.97
2022-11-29T07:53:15.650Z,101282.91
2022-11-29T07:55:19.968Z,101288.31
2022-11-29T07:57:21.503Z,101280.13
2022-11-29T07:59:23.035Z,101281.94
2022-11-29T08:01:24.571Z,101282.16
2022-11-29T08:03:26.234Z,101297.13
2022-11-29T08:05:27.789Z,101285.69
2022-11-29T08:07:33.611Z,101290.75
2022-11-29T08:09:35.129Z,101290.84
2022-11-29T08:11:36.666Z,101290.63
2022-11-29T08:13:38.189Z,101289.31
2022-11-29T08:15:47.043Z,101300.69
2022-11-29T08:17:48.830Z,101268.41
2022-11-29T09:53:36.108Z,101328.19
2022-11-29T09:55:54.318Z,101330.59
2022-11-29T09:57:58.893Z,101327.03
2022-11-29T10:00:05.287Z,101332.41
2022-11-29T10:02:21.428Z,101326.22
2022-11-29T10:04:28.636Z,101322.69
2022-11-29T10:06:35.247Z,101316.44
2022-11-29T10:08:41.769Z,101337.25
2022-11-29T10:10:46.350Z,101331.19
2022-11-29T10:12:52.291Z,101341.66
2022-11-29T10:15:00.894Z,101347.53
2022-11-29T10:17:11.419Z,101338.94
2022-11-29T10:19:23.463Z,101344.94
2022-11-29T10:21:30.193Z,101352.16
2022-11-29T10:23:36.225Z,101344.00
2022-11-29T10:25:46.490Z,101342.81
2022-11-29T10:27:48.147Z,101342.03
2022-11-29T10:29:50.199Z,101343.63
2022-11-29T10:31:52.872Z,101351.88
2022-11-29T10:33:56.222Z,101350.78
2022-11-29T10:36:02.246Z,101346.38
2022-11-29T10:40:31.171Z,101354.78
2022-11-29T10:42:34.186Z,101357.19
2022-11-29T10:44:35.845Z,101357.47
2022-11-29T10:46:37.308Z,101353.88
2022-11-29T10:48:38.924Z,101358.13
2022-11-29T10:50:42.708Z,101359.63
2022-11-29T10:52:46.158Z,101361.38
2022-11-29T10:54:49.497Z,101360.50
2022-11-29T10:56:52.093Z,101354.13
2022-11-29T10:58:57.810Z,101353.88
2022-11-29T11:01:01.593Z,101364.22
2022-11-29T11:03:16.570Z,101342.63
2022-11-29T11:05:26.367Z,101355.66
2022-11-29T11:07:30.908Z,101355.78
2022-11-29T11:09:35.647Z,101345.94
2022-11-29T11:11:37.363Z,101360.06
2022-11-29T11:13:39.360Z,101351.34
2022-11-29T11:15:42.268Z,101354.47
2022-11-29T11:17:56.675Z,101355.13
2022-11-29T11:19:58.917Z,101363.19
2022-11-29T11:22:02.689Z,101355.28
2022-11-29T11:24:05.546Z,101363.03
2022-11-29T11:26:10.180Z,101346.78
2022-11-29T11:28:14.441Z,101357.47
2022-11-29T11:30:21.559Z,101357.66
2022-11-29T11:32:24.506Z,101350.44
2022-11-29T11:34:30.018Z,101354.53
2022-11-29T11:36:31.619Z,101363.47
2022-11-29T11:38:33.632Z,101363.59
2022-11-29T11:40:35.285Z,101361.94
2022-11-29T11:42:39.562Z,101370.75
2022-11-29T11:44:47.488Z,101359.78
2022-11-29T11:46:50.754Z,101370.13
2022-11-29T11:48:53.907Z,101353.63
2022-11-29T11:50:57.806Z,101361.13
2022-11-29T11:53:04.703Z,101370.94
2022-11-29T11:55:27.228Z,101367.28
2022-11-29T11:57:30.084Z,101368.53
2022-11-29T11:59:31.884Z,101372.00
2022-11-29T12:01:39.390Z,101372.03
2022-11-29T12:03:50.494Z,101371.72
2022-11-29T12:05:56.643Z,101370.91
2022-11-29T12:08:09.151Z,101371.00
2022-11-29T12:10:18.891Z,101368.09
2022-11-29T12:12:25.238Z,101374.41
2022-11-29T12:14:36.268Z,101374.44
2022-11-29T12:16:40.348Z,101380.44
2022-11-29T12:18:46.401Z,101374.19
2022-11-29T12:20:55.492Z,101377.75
2022-11-29T12:23:13.133Z,101379.97
2022-11-29T12:25:18.582Z,101375.81
2022-11-29T12:27:20.236Z,101376.59
2022-11-29T12:29:22.136Z,101379.19
2022-11-29T12:31:44.193Z,101372.97
2022-11-29T12:33:55.929Z,101382.09
2022-11-29T12:36:24.874Z,101391.53
2022-11-29T12:38:40.578Z,101393.41
2022-11-29T12:40:53.948Z,101392.03
2022-11-29T12:43:03.174Z,101393.66
2022-11-29T12:45:22.031Z,101382.13
2022-11-29T12:47:37.169Z,101393.59
2022-11-29T12:49:44.498Z,101397.06
2022-11-29T12:51:57.917Z,101405.91
2022-11-29T12:54:22.330Z,101395.47
2022-11-29T12:56:27.162Z,101400.28
2022-11-29T12:58:33.127Z,101413.09
2022-11-29T13:00:44.806Z,101412.28
2022-11-29T13:03:04.704Z,101411.09
2022-11-29T13:05:14.839Z,101420.84
2022-11-29T13:07:26.944Z,101415.34
2022-11-29T13:09:48.157Z,101420.75
2022-11-29T13:11:56.517Z,101416.78
2022-11-29T13:14:34.820Z,101423.81
2022-11-29T13:16:40.294Z,101411.28
2022-11-29T13:18:49.332Z,101397.53
2022-11-29T13:20:58.500Z,101419.88
2022-11-29T13:23:09.375Z,101420.03
2022-11-29T13:25:17.070Z,101420.09
2022-11-29T13:27:23.287Z,101409.50
2022-11-29T13:29:25.857Z,101418.38
2022-11-29T13:31:27.781Z,101416.63
2022-11-29T13:33:34.436Z,101420.34
2022-11-29T13:35:41.768Z,101427.13
2022-11-29T13:37:51.988Z,101429.09
2022-11-29T13:40:13.833Z,101423.66
2022-11-29T13:42:19.663Z,101423.75
2022-11-29T13:44:30.548Z,101432.66
2022-11-29T13:46:41.941Z,101433.59
2022-11-29T13:48:48.381Z,101426.34
2022-11-29T13:50:49.940Z,101423.59
2022-11-29T13:53:03.046Z,101424.44
2022-11-29T13:55:19.100Z,101431.31
2022-11-29T13:57:20.656Z,101431.31
2022-11-29T13:59:27.151Z,101431.25
2022-11-29T14:01:28.818Z,101426.22
2022-11-29T14:03:32.338Z,101437.72
2022-11-29T14:05:39.257Z,101443.16
2022-11-29T14:08:24.671Z,101436.84
2022-11-29T14:10:29.348Z,101441.56
2022-11-29T14:12:36.914Z,101437.41
2022-11-29T14:14:48.185Z,101447.16
2022-11-29T14:16:55.412Z,101412.03
2022-11-29T14:19:06.680Z,101450.50
2022-11-29T14:21:08.572Z,101447.78
2022-11-29T14:23:15.705Z,101452.38
2022-11-29T14:25:50.641Z,101441.56
2022-11-29T14:27:57.652Z,101446.72
2022-11-29T14:29:59.244Z,101456.28
2022-11-29T14:32:00.895Z,101442.19
2022-11-29T14:34:06.215Z,101452.50
2022-11-29T14:36:23.495Z,101457.84
2022-11-29T14:38:31.481Z,101449.88
2022-11-29T14:40:35.456Z,101450.97
2022-11-29T14:42:46.138Z,101459.06
2022-11-29T14:44:51.976Z,101457.22
2022-11-29T14:47:04.823Z,101455.63
2022-11-29T14:49:06.510Z,101463.47
2022-11-29T14:51:09.283Z,101467.22
2022-11-29T14:53:28.980Z,101469.25
2022-11-29T14:55:34.231Z,101470.19
2022-11-29T14:58:03.264Z,101449.75
2022-11-29T15:00:10.360Z,101477.47
2022-11-29T15:02:27.504Z,101474.16
2022-11-29T15:04:34.067Z,101477.56
2022-11-29T15:06:43.300Z,101473.06
2022-11-29T15:08:56.431Z,101477.38
2022-11-29T15:11:01.854Z,101462.94
2022-11-29T15:13:04.699Z,101485.41
2022-11-29T15:15:23.965Z,101487.03
2022-11-29T15:17:31.145Z,101484.34
2022-11-29T15:19:52.271Z,101488.00
2022-11-29T15:22:03.961Z,101482.78
2022-11-29T15:24:10.832Z,101487.09
2022-11-29T15:26:17.799Z,101482.53
2022-11-29T15:28:21.773Z,101481.97
2022-11-29T15:30:33.090Z,101491.63
2022-11-29T15:32:36.806Z,101501.16
2022-11-29T15:34:41.743Z,101494.97
2022-11-29T15:36:43.543Z,101504.75
2022-11-29T15:38:47.669Z,101503.88
2022-11-29T15:40:51.044Z,101503.81
2022-11-29T15:42:58.844Z,101500.22
2022-11-29T15:45:00.392Z,101506.25
2022-11-29T15:47:17.238Z,101482.66
2022-11-29T15:49:23.603Z,101490.50
2022-11-29T15:51:30.000Z,101493.09
2022-11-29T15:53:36.614Z,101498.50
2022-11-29T15:55:38.416Z,101507.31
2022-11-29T15:57:43.084Z,101514.38
2022-11-29T15:59:48.509Z,101514.50
2022-11-29T16:01:55.534Z,101522.59
2022-11-29T16:03:58.843Z,101515.59
2022-11-29T16:06:05.974Z,101521.59
2022-11-29T16:08:13.972Z,101527.81
2022-11-29T16:10:19.263Z,101525.81
2022-11-29T16:12:20.885Z,101531.34
2022-11-29T16:14:24.998Z,101528.84
2022-11-29T16:16:27.419Z,101523.75
2022-11-29T16:18:29.188Z,101538.56
2022-11-29T16:20:32.290Z,101538.56
2022-11-29T16:22:34.133Z,101536.19
2022-11-29T16:24:37.288Z,101541.34
2022-11-29T16:26:41.964Z,101538.09
2022-11-29T16:28:45.694Z,101549.28
2022-11-29T16:30:47.505Z,101546.75
2022-11-29T16:32:52.993Z,101543.34
2022-11-29T16:34:56.284Z,101549.34
2022-11-29T16:37:05.064Z,101543.19
2022-11-29T16:39:16.644Z,101556.50
2022-11-29T16:41:24.196Z,101550.34
2022-11-29T16:43:46.913Z,101559.19
2022-11-29T16:45:48.582Z,101553.00
2022-11-29T16:47:51.040Z,101550.28
2022-11-29T16:50:12.232Z,101553.00
2022-11-29T16:52:25.995Z,101557.56
2022-11-29T16:54:29.145Z,101562.78
2022-11-29T16:56:31.061Z,101559.31
2022-11-29T16:58:36.375Z,101563.56
2022-11-29T17:00:40.655Z,101560.91
2022-11-29T17:02:42.348Z,101557.50
2022-11-29T17:04:44.027Z,101562.88
2022-11-29T17:06:45.704Z,101567.38
2022-11-29T17:08:48.678Z,101566.44
2022-11-29T17:10:50.250Z,101559.53
2022-11-29T17:12:51.838Z,101561.28
2022-11-29T17:14:53.425Z,101563.97
2022-11-29T17:16:55.352Z,101573.63
2022-11-29T17:18:56.913Z,101570.06
2022-11-29T17:20:58.609Z,101571.69
2022-11-29T17:23:00.491Z,101574.34
2022-11-29T17:25:03.868Z,101570.69
2022-11-29T17:27:07.666Z,101555.81
2022-11-29T17:29:09.673Z,101573.22
2022-11-29T17:31:12.982Z,101569.56
2022-11-29T17:33:14.586Z,101573.09
2022-11-29T17:35:16.242Z,101575.88
2022-11-29T17:37:17.613Z,101568.00
2022-11-29T17:39:19.453Z,101570.69
2022-11-29T17:41:23.792Z,101565.47
2022-11-29T17:43:25.471Z,101575.88
2022-11-29T17:45:26.942Z,101569.75
2022-11-29T17:47:28.638Z,101587.16
2022-11-29T17:49:30.061Z,101580.88
2022-11-29T17:53:54.298Z,101578.38
2022-11-29T17:56:01.004Z,101585.09
2022-11-29T17:58:03.906Z,101586.84
2022-11-29T18:00:06.846Z,101580.97
2022-11-29T18:02:09.793Z,101581.81
2022-11-29T18:04:11.631Z,101588.06
2022-11-29T18:06:15.477Z,101588.84
2022-11-29T18:08:17.013Z,101585.34
2022-11-29T18:10:18.720Z,101588.78
2022-11-29T18:12:20.095Z,101590.50
2022-11-29T18:14:23.594Z,101590.50
2022-11-29T18:16:27.698Z,101597.41
2022-11-29T18:18:29.363Z,101601.91
2022-11-29T18:20:30.948Z,101586.13
2022-11-29T18:22:32.740Z,101600.91
2022-11-29T18:24:34.489Z,101604.78
2022-11-29T18:26:37.111Z,101601.22
2022-11-29T18:28:40.092Z,101604.03
2022-11-29T18:30:43.074Z,101601.34
2022-11-29T18:32:44.668Z,101602.16
2022-11-29T18:34:46.463Z,101606.38
2022-11-29T18:36:48.996Z,101585.53
2022-11-29T18:38:55.438Z,101604.63
2022-11-29T18:40:57.050Z,101614.25
2022-11-29T18:42:58.720Z,101604.59
2022-11-29T18:45:00.090Z,101606.31
2022-11-29T18:47:03.128Z,101615.00
2022-11-29T18:49:07.084Z,101612.31
2022-11-29T18:51:10.628Z,101611.34
2022-11-29T18:53:12.874Z,101612.25
2022-11-29T18:55:14.609Z,101606.00
2022-11-29T18:57:16.172Z,101616.50
2022-11-29T18:59:18.010Z,101621.72
2022-11-29T19:01:20.098Z,101622.63
2022-11-29T19:03:23.069Z,101618.16
2022-11-29T19:05:24.671Z,101620.94
2022-11-29T19:07:26.098Z,101616.44
2022-11-29T19:09:27.714Z,101617.25
2022-11-29T19:11:31.335Z,101614.56
2022-11-29T19:13:33.631Z,101615.59
2022-11-29T19:15:35.277Z,101617.16
2022-11-29T19:17:42.817Z,101618.25
2022-11-29T19:19:46.306Z,101625.31
2022-11-29T19:21:48.156Z,101623.53
2022-11-29T19:23:52.001Z,101620.09
2022-11-29T19:25:53.760Z,101618.44
2022-11-29T19:27:55.338Z,101624.47
2022-11-29T19:29:56.910Z,101625.16
2022-11-29T19:31:58.472Z,101629.53
2022-11-29T19:33:59.838Z,101620.66
2022-11-29T19:36:05.960Z,101623.47
2022-11-29T19:38:07.534Z,101635.72
2022-11-29T19:40:09.347Z,101628.69
2022-11-29T19:42:12.828Z,101625.28
2022-11-29T19:44:14.652Z,101628.81
2022-11-29T19:46:18.298Z,101627.84
2022-11-29T19:48:19.942Z,101627.13
2022-11-29T19:50:21.601Z,101629.69
2022-11-29T19:52:24.336Z,101634.16
2022-11-29T19:54:25.962Z,101634.22
2022-11-29T19:56:28.027Z,101635.22
2022-11-29T19:58:29.589Z,101626.38
2022-11-29T20:00:31.152Z,101629.84
2022-11-29T20:02:32.865Z,101628.03
2022-11-29T20:04:34.260Z,101635.09
2022-11-29T20:06:35.897Z,101628.84
2022-11-29T20:08:39.125Z,101636.03
2022-11-29T20:10:40.701Z,101633.34
2022-11-29T20:12:42.300Z,101639.44
2022-11-29T20:14:43.868Z,101638.53
2022-11-29T20:16:45.421Z,101627.16
2022-11-29T20:18:50.918Z,101648.28
2022-11-29T20:20:52.899Z,101645.59
2022-11-29T20:22:54.429Z,101651.66
2022-11-29T20:24:57.561Z,101645.63
2022-11-29T20:26:59.101Z,101645.47
2022-11-29T20:29:00.845Z,101642.81
2022-11-29T20:31:04.919Z,101644.56
2022-11-29T20:33:06.674Z,101643.94
2022-11-29T20:35:09.083Z,101650.09
2022-11-29T20:37:30.283Z,101640.78
2022-11-29T20:39:40.037Z,101646.16
2022-11-29T20:41:52.223Z,101647.03
2022-11-29T20:43:56.704Z,101648.91
2022-11-29T20:45:58.597Z,101645.34
2022-11-29T20:48:05.485Z,101641.75
2022-11-29T20:50:13.378Z,101652.13
2022-11-29T20:52:33.447Z,101652.97
2022-11-29T20:54:35.085Z,101653.09
2022-11-29T20:56:36.745Z,101658.47
2022-11-29T20:58:39.514Z,101661.09
2022-11-29T21:00:41.091Z,101664.44
2022-11-29T21:02:42.743Z,101660.06
2022-11-29T21:04:44.437Z,101662.00
2022-11-29T21:06:46.134Z,101665.25
2022-11-29T21:08:47.776Z,101666.16
2022-11-29T21:10:49.553Z,101663.56
2022-11-29T21:12:51.783Z,101658.44
2022-11-29T21:14:55.486Z,101669.75
2022-11-29T21:16:57.758Z,101662.78
2022-11-29T21:19:02.132Z,101668.81
2022-11-29T21:21:13.928Z,101672.44
2022-11-29T21:23:22.471Z,101677.00
2022-11-29T21:25:35.702Z,101668.41
2022-11-29T21:27:37.867Z,101675.16
2022-11-29T21:29:40.193Z,101682.22
2022-11-29T21:31:44.092Z,101666.44
2022-11-29T21:33:46.188Z,101677.53
2022-11-29T21:35:52.327Z,101684.63
2022-11-29T21:37:58.320Z,101679.41
2022-11-29T21:40:02.982Z,101672.41
2022-11-29T21:42:05.206Z,101687.63
2022-11-29T21:44:07.951Z,101690.28
2022-11-29T21:46:10.052Z,101689.44
2022-11-29T21:48:12.818Z,101692.84
2022-11-29T21:50:14.551Z,101679.91
2022-11-29T21:52:21.998Z,101689.44
2022-11-29T21:54:24.215Z,101689.28
2022-11-29T21:56:27.840Z,101690.41
2022-11-29T21:58:30.843Z,101684.34
2022-11-29T22:00:37.244Z,101696.88
2022-11-29T22:02:39.337Z,101686.97
2022-11-29T22:04:42.438Z,101694.66
2022-11-29T22:06:45.901Z,101687.88
2022-11-29T22:08:48.256Z,101685.28
2022-11-29T22:10:49.901Z,101678.31
2022-11-29T22:12:52.606Z,101693.50
2022-11-29T22:14:54.475Z,101688.97
2022-11-29T22:16:57.810Z,101701.44
2022-11-29T22:18:59.472Z,101705.09
2022-11-29T22:21:02.794Z,101709.69
2022-11-29T22:23:04.364Z,101687.63
2022-11-29T22:25:06.265Z,101707.03
2022-11-29T22:27:07.813Z,101702.78
2022-11-29T22:29:10.369Z,101679.09
2022-11-29T22:31:13.433Z,101705.56
2022-11-29T22:33:15.143Z,101680.28
2022-11-29T22:35:16.533Z,101702.84
2022-11-29T22:37:19.488Z,101698.53
2022-11-29T22:39:21.337Z,101710.66
2022-11-29T22:41:23.006Z,101705.38
2022-11-29T22:43:24.468Z,101706.22
2022-11-29T22:45:25.986Z,101702.59
2022-11-29T22:47:27.688Z,101713.16
2022-11-29T22:49:29.079Z,101714.28
2022-11-29T22:51:32.367Z,101712.41
2022-11-29T22:53:36.283Z,101712.34
2022-11-29T22:55:37.844Z,101713.34
2022-11-29T22:57:39.359Z,101714.16
2022-11-29T22:59:41.048Z,101719.44
2022-11-29T23:01:42.935Z,101720.44
2022-11-29T23:03:46.682Z,101706.34
2022-11-29T23:05:48.271Z,101720.31
2022-11-29T23:07:53.917Z,101711.44
2022-11-29T23:09:56.959Z,101720.31
2022-11-29T23:11:58.548Z,101716.81
2022-11-29T23:14:00.085Z,101712.38
2022-11-29T23:16:02.884Z,101716.63
2022-11-29T23:18:04.713Z,101702.81
2022-11-29T23:20:07.856Z,101717.59
2022-11-29T23:22:09.390Z,101713.94
2022-11-29T23:24:10.989Z,101719.94
2022-11-29T23:26:19.872Z,101712.09
2022-11-29T23:28:21.453Z,101721.06
2022-11-29T23:30:23.319Z,101721.06
2022-11-29T23:32:24.927Z,101723.81
2022-11-29T23:34:26.861Z,101718.63
2022-11-29T23:36:28.723Z,101721.28
2022-11-29T23:38:30.716Z,101719.38
2022-11-29T23:40:32.263Z,101717.66
2022-11-29T23:42:35.197Z,101715.97
2022-11-29T23:44:36.723Z,101717.81
2022-11-29T23:46:38.373Z,101720.44
2022-11-29T23:48:39.937Z,101724.84
2022-11-29T23:50:42.343Z,101723.09
2022-11-29T23:52:43.997Z,101724.00
2022-11-29T23:54:45.527Z,101715.84
2022-11-29T23:56:47.299Z,101721.19
2022-11-29T23:58:50.258Z,101679.97
